Time;durP1;ratioP1;P1;durP2;ratioP2;P2;SDS_P1;SDS_P2;PMS_P1;PMS_P2;Temp;Humidity;BMP_temperature;BMP_pressure;BME280_temperature;BME280_humidity;BME280_pressure;Samples;Min_cycle;Max_cycle;Signal;HPM_P1;HPM_P2
2021/05/07 05:06:01;;;;;;;4.22;3.22;;;;;;;18.50;38.36;99884.69;1835614;76;22738;-66
2021/05/07 05:08:31;;;;;;;5.75;3.27;;;;;;;18.79;37.56;99884.70;1817672;77;21664;-65
2021/05/07 05:11:01;;;;;;;7.15;3.35;;;;;;;19.04;36.85;99885.88;1808976;77;22144;-66
2021/05/07 05:13:34;;;;;;;3.65;3.05;;;;;;;19.23;35.94;99884.47;1811171;77;21049;-67
2021/05/07 05:16:03;;;;;;;3.83;3.10;;;;;;;19.32;35.20;99887.56;1735724;81;21463;-68
2021/05/07 05:18:33;;;;;;;3.95;3.08;;;;;;;19.45;35.25;99886.41;1765402;81;21062;-67
2021/05/07 05:21:07;;;;;;;5.90;3.37;;;;;;;19.69;34.68;99880.59;1734760;81;21666;-67
2021/05/07 05:23:38;;;;;;;4.72;2.95;;;;;;;19.99;34.03;99872.35;1745872;80;21208;-65
2021/05/07 05:26:09;;;;;;;4.42;2.70;;;;;;;20.26;32.88;99876.72;1740700;80;21190;-64
2021/05/07 05:28:38;;;;;;;5.58;3.10;;;;;;;20.49;32.49;99872.64;1748583;81;21603;-66
2021/05/07 05:31:07;;;;;;;6.50;2.80;;;;;;;20.76;31.76;99876.16;1753359;80;21646;-66
2021/05/07 05:33:36;;;;;;;5.60;3.00;;;;;;;20.94;31.61;99872.95;1780894;79;21657;-67
2021/05/07 05:36:06;;;;;;;8.45;3.00;;;;;;;21.09;30.82;99869.23;1743850;80;21744;-65
2021/05/07 05:38:35;;;;;;;4.05;2.62;;;;;;;21.22;30.51;99869.16;1749789;81;20922;-66
2021/05/07 05:41:05;;;;;;;2.75;2.55;;;;;;;21.42;30.16;99868.92;1734229;81;21677;-67
2021/05/07 05:43:34;;;;;;;2.33;2.12;;;;;;;21.63;29.30;99870.14;1741643;80;21528;-67
2021/05/07 05:46:02;;;;;;;8.90;2.80;;;;;;;21.77;29.12;99874.00;1752415;80;21585;-66
2021/05/07 05:48:31;;;;;;;4.87;2.62;;;;;;;21.90;28.42;99870.89;1749482;81;22185;-66
2021/05/07 05:51:00;;;;;;;3.40;2.50;;;;;;;21.98;27.91;99873.56;1750565;79;21849;-69
2021/05/07 05:53:29;;;;;;;3.05;2.42;;;;;;;21.99;27.54;99865.11;1758396;81;21633;-67
2021/05/07 05:56:00;;;;;;;5.45;2.65;;;;;;;21.97;27.66;99865.27;1773493;80;20995;-67
2021/05/07 05:58:32;;;;;;;5.70;2.70;;;;;;;21.93;27.69;99866.09;1750360;81;21598;-68
2021/05/07 06:01:01;;;;;;;4.65;2.58;;;;;;;21.93;27.69;99866.09;1771558;80;21210;-66
2021/05/07 06:03:30;;;;;;;2.47;2.15;;;;;;;22.25;27.59;99873.28;1768066;79;21627;-67
2021/05/07 06:06:00;;;;;;;3.50;2.58;;;;;;;22.25;27.59;99873.28;1799042;78;21562;-66
2021/05/07 06:08:29;;;;;;;3.02;2.25;;;;;;;22.35;26.90;99870.47;1737542;81;21035;-70
2021/05/07 06:10:57;;;;;;;6.22;2.50;;;;;;;22.40;26.65;99874.76;1777650;78;21579;-69
2021/05/07 06:13:26;;;;;;;2.80;2.50;;;;;;;22.36;26.58;99868.66;1751211;81;21351;-70
2021/05/07 06:15:55;;;;;;;3.37;2.27;;;;;;;22.30;26.81;99870.14;1779845;78;21038;-68
2021/05/07 06:18:25;;;;;;;2.98;2.42;;;;;;;22.32;26.67;99868.65;1742463;81;20954;-67
2021/05/07 06:20:54;;;;;;;5.05;2.80;;;;;;;22.26;26.80;99866.98;1733488;81;20974;-67
2021/05/07 06:23:23;;;;;;;2.67;2.40;;;;;;;22.32;24.83;99873.45;1749671;80;21508;-69
2021/05/07 06:25:51;;;;;;;6.30;2.12;;;;;;;22.45;24.98;99866.30;1742754;80;21926;-66
2021/05/07 06:28:20;;;;;;;2.87;2.20;;;;;;;22.67;24.72;99872.28;1711470;81;21499;-66
2021/05/07 06:30:53;;;;;;;2.77;2.10;;;;;;;22.78;24.10;99867.12;1776465;78;21587;-66
2021/05/07 06:33:20;;;;;;;8.33;2.33;;;;;;;22.87;23.64;99864.80;1761523;80;21535;-66
2021/05/07 06:35:49;;;;;;;1.65;1.47;;;;;;;23.01;22.54;99868.09;1776054;80;21585;-66
2021/05/07 06:38:19;;;;;;;2.08;1.60;;;;;;;23.21;22.10;99864.53;1743248;80;21359;-66
2021/05/07 06:40:48;;;;;;;2.65;1.67;;;;;;;23.38;20.96;99856.83;1765714;78;21030;-68
2021/05/07 06:43:16;;;;;;;2.67;2.17;;;;;;;23.41;19.92;99867.62;1746988;80;21626;-67
2021/05/07 06:45:45;;;;;;;3.25;1.65;;;;;;;23.36;19.96;99869.46;1766511;78;20959;-68
2021/05/07 06:48:14;;;;;;;2.02;1.60;;;;;;;23.34;20.47;99860.83;1772104;80;21598;-65
2021/05/07 06:50:42;;;;;;;5.08;1.67;;;;;;;23.27;21.17;99866.00;1775523;80;22056;-66
2021/05/07 06:53:11;;;;;;;2.15;1.80;;;;;;;23.08;20.58;99863.76;1739548;81;21649;-65
2021/05/07 06:55:40;;;;;;;7.37;1.98;;;;;;;22.82;21.13;99867.95;1752490;81;21566;-65
2021/05/07 06:58:11;;;;;;;8.68;2.40;;;;;;;22.56;21.64;99860.67;1746186;81;21199;-69
2021/05/07 07:00:43;;;;;;;4.40;2.45;;;;;;;22.28;21.65;99859.69;1752950;81;21605;-68
2021/05/07 07:03:12;;;;;;;2.60;2.10;;;;;;;21.95;21.65;99865.44;1773280;80;21419;-66
2021/05/07 07:05:41;;;;;;;1.70;1.60;;;;;;;21.57;21.75;99865.52;1743052;81;21585;-67
2021/05/07 07:08:09;;;;;;;2.65;1.70;;;;;;;21.23;22.18;99862.03;1769610;79;21028;-67
2021/05/07 07:10:40;;;;;;;3.02;1.87;;;;;;;21.08;22.88;99867.58;1739283;82;22191;-66
2021/05/07 07:13:09;;;;;;;5.65;1.90;;;;;;;20.96;22.84;99862.55;1741998;82;21581;-67
2021/05/07 07:15:40;;;;;;;1.80;1.60;;;;;;;20.86;22.87;99862.30;1729273;82;21678;-66
2021/05/07 07:18:08;;;;;;;2.37;1.47;;;;;;;20.81;22.10;99864.09;1761654;79;21674;-67
2021/05/07 07:20:38;;;;;;;2.80;1.50;;;;;;;20.75;22.05;99871.36;1798857;77;21452;-67
2021/05/07 07:23:07;;;;;;;13.95;2.25;;;;;;;20.64;22.55;99868.47;1812878;78;21633;-67
2021/05/07 07:25:35;;;;;;;2.10;1.90;;;;;;;20.64;22.55;99868.47;1810942;78;21133;-67
2021/05/07 07:28:06;;;;;;;4.28;1.90;;;;;;;20.47;22.28;99864.02;1746902;81;21514;-65
2021/05/07 07:30:36;;;;;;;3.83;1.80;;;;;;;20.22;22.95;99864.78;1731841;82;21490;-68
2021/05/07 07:33:05;;;;;;;10.08;1.80;;;;;;;20.19;22.96;99869.05;1754215;80;21060;-67
2021/05/07 07:35:34;;;;;;;3.72;1.75;;;;;;;20.19;22.96;99869.05;1798974;78;21097;-67
2021/05/07 07:38:03;;;;;;;3.25;1.60;;;;;;;20.27;23.11;99876.58;1805977;77;21578;-68
2021/05/07 07:40:32;;;;;;;6.30;1.65;;;;;;;20.36;23.07;99874.84;1808799;78;22051;-67
2021/05/07 07:43:01;;;;;;;5.75;2.05;;;;;;;20.53;23.57;99862.09;1734458;81;21035;-66
2021/05/07 07:45:31;;;;;;;1.60;1.50;;;;;;;20.76;23.78;99861.61;1799133;78;21558;-66
2021/05/07 07:47:59;;;;;;;4.12;1.50;;;;;;;20.98;23.65;99859.73;1800042;77;20990;-67
2021/05/07 07:50:28;;;;;;;4.42;2.05;;;;;;;21.10;23.33;99857.16;1813264;78;21033;-68
2021/05/07 07:52:57;;;;;;;4.50;2.42;;;;;;;21.12;22.43;99862.30;1801557;78;21354;-66
2021/05/07 07:55:26;;;;;;;11.95;6.75;;;;;;;20.92;22.55;99859.04;1805363;78;21606;-65
2021/05/07 07:57:55;;;;;;;5.35;3.92;;;;;;;20.73;23.16;99858.77;1743203;81;21371;-66
2021/05/07 08:00:23;;;;;;;9.90;3.75;;;;;;;20.47;23.55;99865.34;1753515;80;21642;-66
2021/05/07 08:02:53;;;;;;;4.65;3.08;;;;;;;20.47;23.55;99865.34;1739110;80;21063;-68
2021/05/07 08:05:24;;;;;;;6.30;2.60;;;;;;;20.24;23.47;99863.66;1803024;77;21449;-66
2021/05/07 08:07:58;;;;;;;4.40;2.37;;;;;;;20.03;23.65;99859.64;1785795;79;20991;-65
2021/05/07 08:10:29;;;;;;;4.72;2.20;;;;;;;19.81;24.24;99868.36;1784104;79;21016;-65
2021/05/07 08:12:57;;;;;;;5.30;2.25;;;;;;;19.63;24.19;99859.56;1718464;82;21052;-65
2021/05/07 08:15:28;;;;;;;3.02;2.25;;;;;;;19.49;24.54;99864.02;1746148;80;21049;-65
2021/05/07 08:17:56;;;;;;;2.25;2.05;;;;;;;19.37;24.79;99863.37;1787931;79;21596;-65
2021/05/07 08:20:27;;;;;;;5.85;2.45;;;;;;;19.28;24.62;99862.91;1741443;80;21589;-65
2021/05/07 08:22:56;;;;;;;3.35;2.15;;;;;;;19.24;24.64;99861.05;1763704;80;21516;-65
2021/05/07 08:25:25;;;;;;;7.70;1.87;;;;;;;19.26;24.72;99860.42;1769336;80;21495;-65
2021/05/07 08:27:57;;;;;;;4.50;2.22;;;;;;;19.36;24.77;99859.06;1770772;80;21049;-65
2021/05/07 08:30:26;;;;;;;2.65;2.17;;;;;;;19.40;24.71;99855.64;1769070;81;22005;-67
2021/05/07 08:32:54;;;;;;;2.67;1.75;;;;;;;19.37;24.85;99847.52;1751582;79;21511;-65
2021/05/07 08:35:24;;;;;;;2.37;1.72;;;;;;;19.36;24.96;99850.31;1775184;79;21496;-66
2021/05/07 08:37:55;;;;;;;2.75;1.90;;;;;;;19.35;25.08;99849.48;1715579;81;20961;-66
2021/05/07 08:40:27;;;;;;;2.92;2.30;;;;;;;19.39;24.87;99847.38;1773015;79;21444;-65
2021/05/07 08:42:59;;;;;;;1.77;1.50;;;;;;;19.51;25.09;99830.39;1805334;79;22260;-65
2021/05/07 08:45:30;;;;;;;4.65;1.67;;;;;;;19.68;24.55;99834.02;1799567;78;21200;-65
2021/05/07 08:48:02;;;;;;;3.52;2.30;;;;;;;19.81;24.01;99843.26;1798183;79;20989;-67
2021/05/07 08:50:30;;;;;;;3.77;2.02;;;;;;;19.89;24.05;99842.02;1800707;78;21171;-68
2021/05/07 08:52:59;;;;;;;2.05;1.82;;;;;;;19.95;24.10;99827.38;1727217;82;20949;-66
2021/05/07 08:55:28;;;;;;;5.97;2.05;;;;;;;20.04;24.28;99829.58;1741385;80;21152;-67
2021/05/07 08:57:59;;;;;;;3.27;1.70;;;;;;;20.14;24.13;99831.17;1761198;80;21089;-67
2021/05/07 09:00:29;;;;;;;2.42;2.05;;;;;;;20.16;23.51;99828.38;1718075;82;21017;-69
2021/05/07 09:03:13;;;;;;;9.25;4.25;;;;;;;20.09;23.43;99831.28;1770130;79;20999;-67
2021/05/07 09:05:46;;;;;;;3.72;2.58;;;;;;;19.93;24.21;99831.50;1761596;80;20927;-68
2021/05/07 09:08:16;;;;;;;3.72;2.42;;;;;;;19.92;24.03;99823.72;1749281;79;21951;-68
2021/05/07 09:10:46;;;;;;;1.92;1.72;;;;;;;20.02;24.18;99834.19;1763014;80;21020;-68
2021/05/07 09:13:21;;;;;;;7.17;2.90;;;;;;;20.15;23.55;99826.22;1745741;81;21020;-65
2021/05/07 09:15:53;;;;;;;5.47;2.80;;;;;;;20.20;23.91;99819.98;1775533;79;20978;-67
2021/05/07 09:18:21;;;;;;;6.42;3.22;;;;;;;20.29;23.85;99834.11;1723323;82;21547;-67
2021/05/07 09:20:50;;;;;;;7.47;2.72;;;;;;;20.29;23.38;99824.86;1741153;80;22293;-67
2021/05/07 09:23:21;;;;;;;10.65;2.70;;;;;;;20.26;23.88;99827.81;1780661;79;21027;-66
2021/05/07 09:25:59;;;;;;;4.97;2.72;;;;;;;20.24;23.48;99820.03;1747150;80;21646;-67
2021/05/07 09:28:28;;;;;;;6.15;2.98;;;;;;;20.21;23.83;99819.50;1762822;80;21034;-67
2021/05/07 09:31:12;;;;;;;6.55;3.60;;;;;;;20.21;24.09;99816.37;1757870;80;21637;-70
2021/05/07 09:33:46;;;;;;;8.38;3.47;;;;;;;20.19;23.75;99810.40;1771407;80;21542;-67
2021/05/07 09:36:29;;;;;;;3.77;2.85;;;;;;;20.05;23.61;99808.28;1759669;80;21042;-67
2021/05/07 09:39:03;;;;;;;5.65;1.98;;;;;;;19.85;24.07;99810.77;1735215;82;21014;-67
2021/05/07 09:41:49;;;;;;;5.10;1.90;;;;;;;19.72;24.61;99817.73;1744653;81;21049;-71
2021/05/07 09:44:28;;;;;;;3.25;2.10;;;;;;;19.65;24.64;99806.92;1806580;79;21611;-66
2021/05/07 09:46:58;;;;;;;4.80;1.85;;;;;;;19.63;24.70;99806.24;1803129;79;21400;-66
2021/05/07 09:49:30;;;;;;;12.63;2.25;;;;;;;19.58;24.82;99812.98;1790526;79;21644;-67
2021/05/07 09:51:58;;;;;;;6.47;2.90;;;;;;;19.54;25.30;99812.94;1797381;78;21123;-67
2021/05/07 09:54:27;;;;;;;6.00;2.33;;;;;;;19.50;25.18;99820.29;1741024;82;21650;-67
2021/05/07 09:56:56;;;;;;;3.72;1.95;;;;;;;19.38;25.03;99830.70;1744948;80;21046;-66
2021/05/07 09:59:26;;;;;;;4.80;2.60;;;;;;;19.20;25.40;99822.72;1771513;80;21280;-69
2021/05/07 10:01:54;;;;;;;4.28;2.83;;;;;;;19.09;25.76;99822.94;1755982;80;21522;-68
2021/05/07 10:04:23;;;;;;;4.03;2.58;;;;;;;19.03;26.31;99816.91;1739497;82;21493;-69
2021/05/07 10:06:52;;;;;;;2.08;1.47;;;;;;;18.97;26.65;99826.73;1724566;82;21590;-69
2021/05/07 10:09:23;;;;;;;2.95;1.70;;;;;;;18.95;27.07;99824.72;1735299;81;21056;-67
2021/05/07 10:11:54;;;;;;;1.50;1.32;;;;;;;18.92;27.39;99826.33;1775248;79;22142;-68
2021/05/07 10:14:24;;;;;;;1.55;1.45;;;;;;;18.91;27.37;99822.85;1799616;79;20930;-67
2021/05/07 10:16:53;;;;;;;4.45;1.82;;;;;;;18.94;27.56;99811.18;1780306;79;21479;-68
2021/05/07 10:19:22;;;;;;;5.15;1.82;;;;;;;19.00;27.30;99806.65;1806022;79;21341;-67
2021/05/07 10:22:01;;;;;;;2.30;1.62;;;;;;;19.06;27.40;99814.48;1780273;79;20934;-67
2021/05/07 10:24:38;;;;;;;4.62;2.30;;;;;;;19.07;27.13;99802.45;1774935;80;22138;-68
2021/05/07 10:27:19;;;;;;;2.95;2.17;;;;;;;19.14;27.49;99794.79;1801933;79;21615;-68
2021/05/07 10:29:56;;;;;;;4.60;1.67;;;;;;;19.16;27.29;99802.08;1777690;79;21005;-68
2021/05/07 10:32:37;;;;;;;5.35;2.00;;;;;;;19.04;27.20;99801.91;1806281;79;20926;-68
2021/05/07 10:35:07;;;;;;;3.98;2.33;;;;;;;18.84;27.61;99786.63;1806771;79;21333;-66
2021/05/07 10:37:42;;;;;;;2.50;2.30;;;;;;;18.78;27.95;99797.30;1806330;79;22073;-66
2021/05/07 10:40:15;;;;;;;2.75;1.82;;;;;;;18.80;27.99;99778.17;1806533;79;21005;-67
2021/05/07 10:42:57;;;;;;;4.25;2.77;;;;;;;18.87;27.92;99787.17;1804412;78;21598;-65
2021/05/07 10:45:46;;;;;;;6.72;2.30;;;;;;;18.91;28.05;99782.45;1801875;79;21010;-67
2021/05/07 10:48:23;;;;;;;5.53;2.10;;;;;;;18.96;28.24;99783.67;1801416;79;21025;-67
2021/05/07 10:50:57;;;;;;;2.75;1.95;;;;;;;18.97;28.06;99778.74;1805506;79;21240;-66
2021/05/07 10:53:31;;;;;;;5.55;2.10;;;;;;;19.00;28.28;99767.06;1787754;79;21072;-67
2021/05/07 10:56:02;;;;;;;4.63;2.00;;;;;;;18.98;28.73;99767.70;1780290;79;21172;-67
2021/05/07 10:58:39;;;;;;;2.58;2.37;;;;;;;18.97;28.23;99766.87;1775961;79;21566;-66
2021/05/07 11:01:23;;;;;;;6.30;2.40;;;;;;;18.90;28.10;99772.87;1776206;79;21107;-67
2021/05/07 11:04:07;;;;;;;4.95;2.08;;;;;;;18.86;28.30;99771.50;1786904;79;21422;-68
2021/05/07 11:06:47;;;;;;;5.10;2.02;;;;;;;18.85;28.10;99765.39;1787180;79;20954;-68
2021/05/07 11:09:22;;;;;;;5.33;2.05;;;;;;;18.81;27.95;99750.82;1794499;79;21033;-76
2021/05/07 11:11:56;;;;;;;4.58;2.27;;;;;;;18.72;28.25;99755.67;1795209;79;21060;-66
2021/05/07 11:14:25;;;;;;;2.10;1.75;;;;;;;18.65;28.48;99747.99;1788149;79;21641;-66
2021/05/07 11:16:55;;;;;;;5.25;1.60;;;;;;;18.58;28.56;99741.59;1795062;79;21334;-68
2021/05/07 11:19:30;;;;;;;5.47;1.92;;;;;;;18.58;28.34;99738.47;1796565;79;21498;-67
2021/05/07 11:22:04;;;;;;;9.18;2.15;;;;;;;18.57;28.28;99731.53;1796107;79;21033;-67
2021/05/07 11:24:36;;;;;;;3.15;1.40;;;;;;;18.54;28.53;99723.91;1789287;79;20910;-70
2021/05/07 11:27:24;;;;;;;3.50;1.70;;;;;;;18.56;28.73;99729.88;1773075;81;20903;-66
2021/05/07 11:30:03;;;;;;;3.15;1.57;;;;;;;18.63;28.44;99733.63;1770617;81;21183;-69
2021/05/07 11:32:32;;;;;;;2.42;1.65;;;;;;;18.67;28.26;99721.48;1775877;79;21551;-68
2021/05/07 11:35:05;;;;;;;7.20;1.85;;;;;;;18.71;28.63;99697.79;1786249;79;20962;-66
2021/05/07 11:37:39;;;;;;;1.67;1.52;;;;;;;18.74;28.53;99709.38;1771475;81;21563;-71
2021/05/07 11:40:14;;;;;;;10.93;2.50;;;;;;;18.65;28.68;99703.16;1776586;79;21016;-66
2021/05/07 11:42:47;;;;;;;3.17;1.67;;;;;;;18.52;29.14;99717.12;1772117;81;21345;-67
2021/05/07 11:45:25;;;;;;;4.92;1.70;;;;;;;18.38;29.26;99713.16;1799462;79;20959;-68
2021/05/07 11:47:54;;;;;;;3.40;1.60;;;;;;;18.25;29.42;99708.20;1801181;79;20966;-69
2021/05/07 11:50:25;;;;;;;2.62;1.60;;;;;;;18.13;29.66;99708.01;1803451;79;21405;-65
2021/05/07 11:52:56;;;;;;;2.02;1.52;;;;;;;18.05;29.96;99705.24;1752606;81;21009;-66
2021/05/07 11:55:28;;;;;;;3.52;2.00;;;;;;;17.91;30.26;99701.27;1803202;79;21940;-66
2021/05/07 11:58:06;;;;;;;3.10;1.40;;;;;;;17.78;30.55;99699.89;1772333;79;21350;-67
2021/05/07 12:00:36;;;;;;;2.72;1.57;;;;;;;17.67;30.44;99695.59;1790480;79;20911;-69
2021/05/07 12:03:14;;;;;;;2.05;1.47;;;;;;;17.54;30.60;99695.03;1802514;79;21615;-66
2021/05/07 12:05:45;;;;;;;2.62;1.82;;;;;;;17.43;31.06;99693.36;1803110;79;20994;-68
2021/05/07 12:08:26;;;;;;;2.25;1.60;;;;;;;17.33;31.36;99682.82;1808341;79;21134;-66
2021/05/07 12:10:55;;;;;;;1.92;1.50;;;;;;;17.23;31.64;99672.77;1781366;80;21021;-67
2021/05/07 12:13:25;;;;;;;2.70;1.62;;;;;;;17.17;31.59;99665.93;1791859;77;20989;-66
2021/05/07 12:15:54;;;;;;;2.17;1.98;;;;;;;17.09;31.53;99662.66;1805794;79;20977;-67
2021/05/07 12:18:23;;;;;;;3.67;1.95;;;;;;;17.02;31.99;99672.06;1811532;78;21472;-69
2021/05/07 12:20:57;;;;;;;4.55;1.70;;;;;;;16.94;32.15;99661.38;1791145;79;22028;-65
2021/05/07 12:23:28;;;;;;;6.08;1.70;;;;;;;16.92;32.42;99655.42;1813286;79;21037;-66
2021/05/07 12:26:00;;;;;;;4.03;1.95;;;;;;;16.92;32.52;99653.62;1780768;79;21017;-66
2021/05/07 12:28:31;;;;;;;3.42;2.22;;;;;;;16.95;32.57;99644.63;1782373;80;21487;-68
2021/05/07 12:31:01;;;;;;;3.25;1.90;;;;;;;16.98;32.51;99643.87;1782239;79;20981;-68
2021/05/07 12:33:29;;;;;;;4.30;2.10;;;;;;;16.99;32.57;99637.66;1729052;80;21123;-66
2021/05/07 12:35:59;;;;;;;2.90;2.27;;;;;;;17.06;32.80;99636.63;1781183;80;21622;-67
2021/05/07 12:38:38;;;;;;;4.33;2.65;;;;;;;17.15;33.10;99637.13;1787426;79;21001;-66
2021/05/07 12:41:13;;;;;;;7.67;2.20;;;;;;;17.19;32.78;99629.79;1814255;79;21614;-65
2021/05/07 12:43:45;;;;;;;4.97;1.92;;;;;;;17.18;33.00;99627.64;1803586;77;21060;-65
2021/05/07 12:46:14;;;;;;;2.80;1.67;;;;;;;17.16;32.85;99628.27;1782228;80;21479;-66
2021/05/07 12:48:48;;;;;;;7.40;2.17;;;;;;;17.13;33.08;99627.70;1780837;80;20898;-67
2021/05/07 12:51:21;;;;;;;2.25;1.77;;;;;;;17.03;33.20;99619.80;1786654;79;21040;-67
2021/05/07 12:53:51;;;;;;;3.25;1.87;;;;;;;16.99;33.27;99613.15;1804478;79;21571;-66
2021/05/07 12:56:22;;;;;;;2.08;1.87;;;;;;;16.95;33.44;99612.59;1791795;78;20996;-62
2021/05/07 12:58:51;;;;;;;6.70;2.08;;;;;;;16.96;33.80;99608.16;1789053;79;21358;-63
2021/05/07 13:01:21;;;;;;;5.62;1.80;;;;;;;16.96;33.79;99603.73;1814365;79;21586;-64
2021/05/07 13:03:50;;;;;;;2.33;2.02;;;;;;;16.96;33.58;99603.73;1813497;79;21614;-64
2021/05/07 13:06:19;;;;;;;2.95;2.20;;;;;;;16.95;33.89;99600.75;1796244;79;21009;-67
2021/05/07 13:08:48;;;;;;;4.47;1.82;;;;;;;16.99;34.14;99590.79;1781916;80;21037;-66
2021/05/07 13:11:17;;;;;;;3.37;2.37;;;;;;;17.00;34.09;99591.97;1781818;80;21398;-65
2021/05/07 13:13:47;;;;;;;4.15;2.08;;;;;;;17.01;34.19;99582.28;1781818;79;20954;-66
2021/05/07 13:16:16;;;;;;;2.90;2.02;;;;;;;17.00;34.12;99577.98;1781692;80;21167;-66
2021/05/07 13:18:46;;;;;;;4.25;2.00;;;;;;;16.96;33.98;99578.74;1744137;82;21496;-67
2021/05/07 13:21:15;;;;;;;6.05;2.47;;;;;;;16.91;34.13;99576.17;1744661;82;21445;-66
2021/05/07 13:23:44;;;;;;;2.47;2.25;;;;;;;16.87;34.36;99573.47;1739978;81;21432;-67
2021/05/07 13:26:13;;;;;;;2.15;1.85;;;;;;;16.84;35.57;99578.52;1731924;82;21851;-65
2021/05/07 13:28:44;;;;;;;2.17;1.75;;;;;;;16.81;35.71;99572.70;1803734;79;20946;-65
2021/05/07 13:31:12;;;;;;;4.35;2.20;;;;;;;16.75;36.07;99566.70;1735562;82;21457;-65
2021/05/07 13:33:41;;;;;;;6.50;2.33;;;;;;;16.71;35.79;99563.52;1759532;80;21686;-65
2021/05/07 13:36:09;;;;;;;6.45;2.70;;;;;;;16.70;35.77;99553.96;1734294;82;22483;-63
2021/05/07 13:38:40;;;;;;;6.78;2.40;;;;;;;16.71;35.29;99545.59;1741868;82;21596;-66
2021/05/07 13:41:11;;;;;;;2.92;2.60;;;;;;;16.70;35.21;99536.87;1738347;82;21590;-63
2021/05/07 13:43:40;;;;;;;4.62;3.65;;;;;;;16.72;35.45;99525.73;1722158;82;21006;-67
2021/05/07 13:46:12;;;;;;;2.80;2.60;;;;;;;16.77;35.32;99518.75;1729389;82;21550;-69
2021/05/07 13:48:42;;;;;;;6.10;2.75;;;;;;;16.81;35.09;99511.73;1736614;82;21448;-64
2021/05/07 13:51:11;;;;;;;4.20;1.70;;;;;;;16.90;34.92;99503.02;1744202;81;21627;-65
2021/05/07 13:53:40;;;;;;;4.30;1.90;;;;;;;17.02;34.67;99512.09;1739170;81;21656;-65
2021/05/07 13:56:09;;;;;;;4.55;2.00;;;;;;;17.09;34.24;99494.78;1734295;82;21638;-66
2021/05/07 13:58:39;;;;;;;3.17;1.87;;;;;;;17.14;34.17;99490.77;1738489;80;21030;-64
2021/05/07 14:01:08;;;;;;;5.87;2.35;;;;;;;17.20;34.02;99492.80;1736781;82;22416;-65
2021/05/07 14:03:38;;;;;;;6.45;2.35;;;;;;;17.25;33.77;99497.16;1737692;80;21633;-66
2021/05/07 14:06:07;;;;;;;5.20;2.35;;;;;;;17.28;33.47;99476.31;1755817;81;20931;-65
